Aviation Digital Data Service (ADDS)

Output produced by METARs form (1823 UTC 24 June 2018)
found at http://aviationweather.gov/adds/metars/
 
KJHW 241720Z 2418/2518 26008KT P6SM VCSH SCT015 BKN040 
     FM242100 26010KT P6SM VCSH OVC015 
     FM250000 34008KT P6SM VCSH OVC007 
     FM250300 01006KT P6SM OVC007 
     FM250700 VRB03KT P6SM OVC007 
     FM251300 33006KT P6SM BKN012 
     FM251500 01008KT P6SM SCT020 AMD LTD TO CLD VIS AND WIND